Time;durP1;ratioP1;P1;durP2;ratioP2;P2;SDS_P1;SDS_P2;PMS_P1;PMS_P2;Temp;Humidity;BMP_temperature;BMP_pressure;BME280_temperature;BME280_humidity;BME280_pressure;Samples;Min_cycle;Max_cycle;Signal;HPM_P1;HPM_P2
2021/09/01 00:01:16;;;;;;;11.20;7.10;;;;;;;11.50;100.00;95720.97;5014574;28;20081;-60
2021/09/01 00:03:42;;;;;;;11.27;6.93;;;;;;;11.50;100.00;95720.16;5014781;28;20061;-61
2021/09/01 00:06:09;;;;;;;11.88;7.03;;;;;;;11.48;100.00;95720.41;5014869;28;20034;-61
2021/09/01 00:08:37;;;;;;;9.38;7.30;;;;;;;11.49;100.00;95722.03;5014729;28;20021;-61
2021/09/01 00:11:11;;;;;;;10.13;6.75;;;;;;;11.46;100.00;95719.84;5014417;28;20168;-61
2021/09/01 00:13:39;;;;;;;9.82;6.97;;;;;;;11.41;100.00;95725.19;5014416;28;20053;-61
2021/09/01 00:16:05;;;;;;;8.85;6.38;;;;;;;11.45;100.00;95731.66;4997124;28;20060;-60
2021/09/01 00:18:33;;;;;;;8.95;6.55;;;;;;;11.46;100.00;95737.84;5014587;28;20065;-61
2021/09/01 00:21:05;;;;;;;10.68;7.20;;;;;;;11.40;100.00;95731.63;5014536;28;20036;-61
2021/09/01 00:23:31;;;;;;;;;;;;;;;11.33;100.00;95725.66;5015076;28;20285;-59
2021/09/01 00:25:56;;;;;;;8.93;6.30;;;;;;;11.26;100.00;95731.19;5014491;28;20300;-61
2021/09/01 00:28:22;;;;;;;9.25;6.65;;;;;;;11.25;100.00;95737.63;4997267;28;20038;-61
2021/09/01 00:30:50;;;;;;;10.32;6.60;;;;;;;11.24;100.00;95741.38;5014422;28;20072;-61
2021/09/01 00:33:18;;;;;;;9.60;6.75;;;;;;;11.30;100.00;95736.88;4997070;28;20545;-61
2021/09/01 00:35:50;;;;;;;10.18;7.32;;;;;;;11.31;100.00;95736.63;5014358;28;20030;-61
2021/09/01 00:38:15;;;;;;;8.82;7.00;;;;;;;11.35;100.00;95734.25;5014051;28;20033;-61
2021/09/01 00:40:41;;;;;;;11.82;7.60;;;;;;;11.36;100.00;95740.41;5014074;28;20033;-61
2021/09/01 00:43:06;;;;;;;11.65;7.20;;;;;;;11.39;100.00;95727.28;5014224;28;20034;-61
2021/09/01 00:45:35;;;;;;;9.45;6.88;;;;;;;11.37;100.00;95729.44;4996554;28;20121;-61
2021/09/01 00:48:02;;;;;;;9.93;7.38;;;;;;;11.34;100.00;95729.94;5014048;28;20018;-61
2021/09/01 00:50:27;;;;;;;10.52;7.15;;;;;;;11.35;100.00;95734.25;5013963;28;20030;-57
2021/09/01 00:52:54;;;;;;;9.80;7.47;;;;;;;11.30;100.00;95731.53;4996942;28;20107;-60
2021/09/01 00:55:24;;;;;;;10.68;7.78;;;;;;;11.25;100.00;95743.00;5013823;28;20030;-60
2021/09/01 00:57:53;;;;;;;9.38;7.20;;;;;;;11.23;100.00;95738.94;5014025;28;20381;-60
2021/09/01 01:00:37;;;;;;;9.90;7.00;;;;;;;11.17;100.00;95738.06;5014519;28;20083;-61
2021/09/01 01:03:02;;;;;;;9.80;6.88;;;;;;;11.10;100.00;95745.53;5036733;23;20058;-60
2021/09/01 01:05:37;;;;;;;10.00;7.20;;;;;;;11.02;100.00;95744.09;5032128;28;20083;-60
2021/09/01 01:08:06;;;;;;;9.70;6.95;;;;;;;10.97;100.00;95748.59;5018612;28;20055;-59
2021/09/01 01:10:34;;;;;;;11.30;7.72;;;;;;;10.90;100.00;95746.09;5033458;28;20025;-60
2021/09/01 01:13:00;;;;;;;9.38;7.25;;;;;;;10.92;100.00;95749.34;5033439;28;20083;-60
2021/09/01 01:15:25;;;;;;;9.20;7.18;;;;;;;10.89;100.00;95754.38;5032200;28;20060;-58
2021/09/01 01:17:54;;;;;;;9.57;7.15;;;;;;;10.89;100.00;95751.72;5031887;28;20072;-59
2021/09/01 01:20:19;;;;;;;10.25;7.35;;;;;;;10.92;100.00;95752.00;5031816;28;20143;-60
2021/09/01 01:22:48;;;;;;;9.95;7.82;;;;;;;10.90;100.00;95751.47;5032906;28;20112;-59
2021/09/01 01:25:45;;;;;;;11.60;7.95;;;;;;;10.90;100.00;95746.09;5033387;28;20488;-58
2021/09/01 01:28:17;;;;;;;9.48;7.47;;;;;;;10.87;100.00;95743.13;5031972;28;20037;-61
2021/09/01 01:30:42;;;;;;;11.57;8.13;;;;;;;10.84;100.00;95743.59;5033020;28;20464;-59
2021/09/01 01:33:08;;;;;;;11.27;7.97;;;;;;;10.84;100.00;95746.28;5032965;28;20053;-60
2021/09/01 01:35:36;;;;;;;11.43;8.23;;;;;;;10.84;100.00;95752.44;5033107;28;20022;-61
2021/09/01 01:38:16;;;;;;;14.13;8.07;;;;;;;10.82;100.00;95748.41;5032815;28;20455;-59
2021/09/01 01:40:47;;;;;;;10.30;7.70;;;;;;;10.82;100.00;95748.41;5033192;28;20283;-59
2021/09/01 01:43:15;;;;;;;12.32;8.57;;;;;;;10.84;100.00;95747.09;5031473;28;20047;-59
2021/09/01 01:46:06;;;;;;;15.57;8.98;;;;;;;10.92;100.00;95746.66;5031652;28;20392;-60
2021/09/01 01:48:34;;;;;;;12.07;8.82;;;;;;;10.92;100.00;95745.84;5032851;28;20037;-59
2021/09/01 01:51:02;;;;;;;13.98;9.35;;;;;;;10.95;100.00;95740.78;5032584;28;20057;-59
2021/09/01 01:53:35;;;;;;;14.02;9.73;;;;;;;10.97;100.00;95740.56;5031432;28;20040;-59
2021/09/01 01:56:04;;;;;;;;;;;;;;;11.01;100.00;95730.94;5031994;28;20024;-59
2021/09/01 01:58:29;;;;;;;12.98;9.63;;;;;;;11.01;100.00;95723.72;5031833;28;19909;-53
2021/09/01 02:00:55;;;;;;;13.75;9.65;;;;;;;11.02;100.00;95719.97;5018896;28;20369;-59
2021/09/01 02:03:23;;;;;;;14.30;9.00;;;;;;;11.02;100.00;95725.31;5031011;28;20053;-59
2021/09/01 02:05:52;;;;;;;13.13;9.52;;;;;;;11.02;100.00;95722.66;5030436;28;20042;-60
2021/09/01 02:08:21;;;;;;;13.63;10.02;;;;;;;11.02;100.00;95725.31;5025969;28;20029;-59
2021/09/01 02:10:48;;;;;;;14.15;9.88;;;;;;;11.06;100.00;95730.97;5032629;28;20104;-59
2021/09/01 02:13:22;;;;;;;15.40;10.07;;;;;;;11.05;100.00;95724.00;5032261;28;20456;-60
2021/09/01 02:15:47;;;;;;;12.68;9.88;;;;;;;11.04;100.00;95723.19;5032583;28;20036;-59
2021/09/01 02:18:13;;;;;;;15.30;10.43;;;;;;;11.03;100.00;95723.44;5030867;28;20017;-59
2021/09/01 02:20:41;;;;;;;14.80;10.18;;;;;;;11.00;100.00;95718.59;5032303;28;20052;-59
2021/09/01 02:23:06;;;;;;;16.35;10.10;;;;;;;10.97;100.00;95716.44;5032368;28;20388;-59
2021/09/01 02:25:32;;;;;;;15.40;10.68;;;;;;;10.95;100.00;95718.53;5031224;28;20025;-58
2021/09/01 02:27:57;;;;;;;14.15;10.43;;;;;;;10.91;100.00;95718.22;5032254;28;20032;-59
2021/09/01 02:30:23;;;;;;;15.13;10.68;;;;;;;10.88;100.00;95720.63;5031063;28;20083;-60
2021/09/01 02:32:49;;;;;;;16.50;10.50;;;;;;;10.83;100.00;95716.00;5031916;28;20029;-59
2021/09/01 02:35:17;;;;;;;15.90;10.82;;;;;;;10.82;100.00;95714.38;5031038;28;20021;-59
2021/09/01 02:37:51;;;;;;;17.13;11.45;;;;;;;10.80;100.00;95713.81;5030830;28;20125;-59
2021/09/01 02:40:17;;;;;;;17.40;11.23;;;;;;;10.84;100.00;95700.72;5032239;28;20040;-59
2021/09/01 02:42:42;;;;;;;17.10;11.70;;;;;;;10.87;100.00;95708.28;5031973;28;20022;-60
2021/09/01 02:45:08;;;;;;;17.30;11.23;;;;;;;10.90;100.00;95699.72;5030634;28;20036;-61
2021/09/01 02:47:34;;;;;;;15.82;11.77;;;;;;;10.95;100.00;95694.41;5032030;28;20112;-59
2021/09/01 02:50:04;;;;;;;16.77;11.77;;;;;;;10.92;100.00;95687.69;5047256;28;20021;-59
2021/09/01 02:52:30;;;;;;;18.58;12.73;;;;;;;10.92;100.00;95676.16;5030548;28;20021;-61
2021/09/01 02:54:58;;;;;;;17.73;11.48;;;;;;;10.88;100.00;95669.69;5032501;28;20040;-59
2021/09/01 02:57:23;;;;;;;17.25;11.82;;;;;;;10.88;100.00;95669.69;5031907;28;20488;-61
2021/09/01 02:59:49;;;;;;;15.73;11.73;;;;;;;10.89;100.00;95671.31;5019122;28;20049;-59
2021/09/01 03:02:14;;;;;;;17.27;12.27;;;;;;;10.88;100.00;95664.34;5028502;28;20132;-61
2021/09/01 03:04:47;;;;;;;17.02;12.43;;;;;;;10.87;100.00;95666.22;5030788;28;20053;-58
2021/09/01 03:07:12;;;;;;;21.90;12.07;;;;;;;10.88;100.00;95661.66;5024479;28;20013;-58
2021/09/01 03:09:40;;;;;;;17.60;12.80;;;;;;;10.85;100.00;95657.59;5030610;28;20036;-56
2021/09/01 03:12:08;;;;;;;18.50;12.00;;;;;;;10.84;100.00;95657.84;5030769;28;20430;-59
2021/09/01 03:14:40;;;;;;;16.42;11.25;;;;;;;10.81;100.00;95645.75;5030413;28;20036;-56
2021/09/01 03:17:05;;;;;;;19.60;12.20;;;;;;;10.78;100.00;95648.16;5030366;28;20579;-60
2021/09/01 03:19:33;;;;;;;19.77;12.18;;;;;;;10.76;100.00;95640.38;5030419;28;20191;-62
2021/09/01 03:22:02;;;;;;;19.13;12.80;;;;;;;10.74;100.00;95634.44;5031695;28;20032;-59
2021/09/01 03:24:33;;;;;;;18.15;12.25;;;;;;;10.70;100.00;95625.28;5031632;28;20036;-60
2021/09/01 03:26:59;;;;;;;17.90;12.00;;;;;;;10.63;100.00;95624.66;5031648;28;20028;-61
2021/09/01 03:29:24;;;;;;;16.45;11.70;;;;;;;10.66;100.00;95627.66;5030461;28;20455;-59
2021/09/01 03:31:50;;;;;;;18.17;12.00;;;;;;;10.61;100.00;95621.44;5031898;28;20033;-61
2021/09/01 03:34:17;;;;;;;16.42;12.27;;;;;;;10.56;100.00;95626.75;5030696;28;20025;-59
2021/09/01 03:36:53;;;;;;;17.25;11.75;;;;;;;10.50;100.00;95625.06;5031546;28;20025;-61
2021/09/01 03:39:19;;;;;;;17.65;12.52;;;;;;;10.44;100.00;95624.22;5031482;28;20021;-60
2021/09/01 03:41:50;;;;;;;18.23;13.15;;;;;;;10.48;100.00;95621.81;5031694;28;20075;-62
2021/09/01 03:44:18;;;;;;;15.90;12.32;;;;;;;10.44;100.00;95618.84;5031493;28;20108;-59
2021/09/01 03:46:48;;;;;;;17.83;12.82;;;;;;;10.42;100.00;95613.75;5031486;28;20021;-60
2021/09/01 03:49:20;;;;;;;16.23;12.02;;;;;;;10.44;100.00;95606.28;5033744;28;20025;-61
2021/09/01 03:51:49;;;;;;;20.00;12.80;;;;;;;10.41;100.00;95605.94;5034847;28;20021;-61
2021/09/01 03:54:15;;;;;;;17.67;12.50;;;;;;;10.37;100.00;95600.28;5034917;28;20029;-61
2021/09/01 03:56:41;;;;;;;17.45;11.85;;;;;;;10.34;100.00;95600.00;5034786;28;20028;-59
2021/09/01 03:59:09;;;;;;;19.25;12.60;;;;;;;10.32;100.00;95588.72;5029015;28;20424;-59
2021/09/01 04:01:35;;;;;;;19.73;12.77;;;;;;;10.30;100.00;95588.13;5029397;28;20494;-59
2021/09/01 04:04:05;;;;;;;17.95;13.40;;;;;;;10.27;100.00;95591.31;5054683;28;20033;-61
2021/09/01 04:06:36;;;;;;;19.27;13.40;;;;;;;10.28;100.00;95582.22;5028907;28;20030;-60
2021/09/01 04:09:08;;;;;;;19.35;12.90;;;;;;;10.28;100.00;95577.69;5041584;28;20492;-61
2021/09/01 04:11:34;;;;;;;20.92;14.05;;;;;;;10.29;100.00;95579.31;5054402;28;20081;-59
2021/09/01 04:14:02;;;;;;;20.48;13.32;;;;;;;10.30;100.00;95574.75;5036829;28;20075;-59
2021/09/01 04:16:27;;;;;;;19.52;13.63;;;;;;;10.31;100.00;95569.19;5054458;28;20115;-59
2021/09/01 04:18:53;;;;;;;19.25;14.68;;;;;;;10.34;100.00;95566.00;5054215;28;20013;-60
2021/09/01 04:21:26;;;;;;;19.50;13.77;;;;;;;10.36;100.00;95560.38;5052975;28;20036;-58
2021/09/01 04:23:52;;;;;;;23.48;15.60;;;;;;;10.39;100.00;95554.50;5054277;28;20025;-61
2021/09/01 04:26:17;;;;;;;21.20;13.90;;;;;;;10.36;100.00;95550.47;5054165;28;20099;-57
2021/09/01 04:28:49;;;;;;;19.77;14.68;;;;;;;10.34;100.00;95552.59;5054206;28;20047;-59
2021/09/01 04:31:19;;;;;;;19.25;13.35;;;;;;;10.37;100.00;95545.94;5054081;28;20495;-59
2021/09/01 04:33:56;;;;;;;20.08;14.50;;;;;;;10.36;100.00;95547.78;5036262;28;20052;-61
2021/09/01 04:36:24;;;;;;;18.75;13.75;;;;;;;10.32;100.00;95546.69;5019939;28;20036;-61
2021/09/01 04:38:55;;;;;;;22.55;14.85;;;;;;;10.30;100.00;95554.13;5053865;28;20467;-59
2021/09/01 04:41:20;;;;;;;22.27;13.73;;;;;;;10.25;100.00;95551.44;5036103;28;20032;-60
2021/09/01 04:43:49;;;;;;;22.08;15.05;;;;;;;10.27;100.00;95554.66;5053918;28;20392;-62
2021/09/01 04:46:21;;;;;;;19.08;14.02;;;;;;;10.28;100.00;95555.47;5024636;28;20548;-62
2021/09/01 04:48:49;;;;;;;21.58;15.05;;;;;;;10.40;100.00;95546.22;5042928;28;20399;-61
2021/09/01 04:51:21;;;;;;;24.08;14.90;;;;;;;10.49;100.00;95543.09;5019107;28;20025;-59
2021/09/01 04:53:46;;;;;;;21.27;15.00;;;;;;;10.55;100.00;95540.22;5044435;28;20387;-59
2021/09/01 04:56:21;;;;;;;22.88;15.20;;;;;;;10.62;100.00;95535.47;5052770;28;20017;-59
2021/09/01 04:58:47;;;;;;;22.95;16.40;;;;;;;10.66;100.00;95543.81;5034963;28;20044;-59
2021/09/01 05:01:12;;;;;;;22.83;16.40;;;;;;;10.72;100.00;95529.38;5053709;28;20025;-61
2021/09/01 05:03:40;;;;;;;25.73;16.90;;;;;;;10.78;100.00;95533.75;5053590;28;20051;-59
2021/09/01 05:06:13;;;;;;;26.15;17.85;;;;;;;10.80;100.00;95528.94;5025023;28;20033;-59
2021/09/01 05:08:39;;;;;;;26.50;17.73;;;;;;;10.83;100.00;95525.72;5053617;28;20035;-59
2021/09/01 05:11:04;;;;;;;25.52;17.10;;;;;;;10.87;100.00;95531.41;5053402;28;20033;-59
2021/09/01 05:13:36;;;;;;;23.42;17.40;;;;;;;10.90;100.00;95525.53;5053422;28;20029;-56
2021/09/01 05:16:01;;;;;;;26.58;18.70;;;;;;;10.94;100.00;95534.66;5053537;28;20063;-59
2021/09/01 05:18:27;;;;;;;24.85;18.23;;;;;;;10.97;100.00;95544.91;5019189;28;20025;-57
2021/09/01 05:20:57;;;;;;;25.55;17.85;;;;;;;10.96;100.00;95545.94;5053384;28;20033;-60
2021/09/01 05:23:34;;;;;;;23.55;16.58;;;;;;;11.00;100.00;95549.72;5048505;28;20025;-57
2021/09/01 05:26:18;;;;;;;23.25;16.10;;;;;;;11.02;100.00;95550.28;5053605;28;20550;-59
2021/09/01 05:28:48;;;;;;;24.40;17.95;;;;;;;11.03;100.00;95562.63;5053121;28;20105;-58
2021/09/01 05:31:14;;;;;;;28.70;17.98;;;;;;;11.06;100.00;95563.97;5053113;28;20105;-56
2021/09/01 05:33:48;;;;;;;25.73;16.65;;;;;;;11.10;100.00;95575.81;5042490;28;20435;-58
2021/09/01 05:36:16;;;;;;;23.25;16.95;;;;;;;11.12;100.00;95573.69;5034772;28;20021;-58
2021/09/01 05:38:44;;;;;;;24.23;15.95;;;;;;;11.13;100.00;95568.06;5020091;28;20029;-61
2021/09/01 05:41:10;;;;;;;21.23;15.65;;;;;;;11.15;100.00;95571.28;5032517;28;20484;-56
2021/09/01 05:43:36;;;;;;;19.75;15.02;;;;;;;11.19;100.00;95574.28;5040440;28;20022;-61
2021/09/01 05:46:02;;;;;;;21.35;15.25;;;;;;;11.21;100.00;95574.84;5046569;28;20028;-59
2021/09/01 05:48:29;;;;;;;22.27;15.38;;;;;;;11.21;100.00;95567.59;5040799;28;20384;-61
2021/09/01 05:50:57;;;;;;;21.25;14.95;;;;;;;11.23;100.00;95576.19;5045138;28;20025;-59
2021/09/01 05:56:17;;;;;;;19.80;14.35;;;;;;;11.29;100.00;95571.69;5051172;28;20025;-59
2021/09/01 05:58:54;;;;;;;21.35;15.15;;;;;;;11.29;100.00;95588.59;5033599;28;20032;-58
2021/09/01 06:01:26;;;;;;;21.38;15.68;;;;;;;11.34;100.00;95585.13;5034654;28;20039;-62
2021/09/01 06:03:57;;;;;;;22.33;14.65;;;;;;;11.31;100.00;95583.75;5047506;28;20048;-62
2021/09/01 06:06:24;;;;;;;21.85;14.38;;;;;;;11.37;100.00;95581.09;5034635;28;20546;-58
2021/09/01 06:08:57;;;;;;;20.65;14.77;;;;;;;11.40;100.00;95591.34;5022803;28;20029;-58
2021/09/01 06:11:27;;;;;;;22.60;15.15;;;;;;;11.41;100.00;95592.97;5032069;28;20020;-61
2021/09/01 06:13:52;;;;;;;21.80;15.52;;;;;;;11.39;100.00;95595.06;5035751;28;20040;-61
2021/09/01 06:16:20;;;;;;;19.63;14.93;;;;;;;11.41;100.00;95599.13;5029962;28;20079;-60
2021/09/01 06:18:48;;;;;;;18.73;14.32;;;;;;;11.47;100.00;95600.75;5045518;28;20045;-60
2021/09/01 06:21:14;;;;;;;17.58;14.05;;;;;;;11.51;100.00;95607.25;5038899;28;20025;-59
2021/09/01 06:23:42;;;;;;;20.55;14.52;;;;;;;11.57;100.00;95606.19;5034208;28;20028;-58
2021/09/01 06:26:08;;;;;;;18.70;13.60;;;;;;;11.64;100.00;95607.88;5026699;28;20060;-58
2021/09/01 06:28:33;;;;;;;16.85;13.07;;;;;;;11.65;100.00;95604.13;5051021;28;20051;-59
2021/09/01 06:30:59;;;;;;;19.73;12.65;;;;;;;11.66;100.00;95609.22;5034384;28;20060;-60
2021/09/01 06:33:24;;;;;;;17.50;13.38;;;;;;;11.74;100.00;95618.66;5034210;28;20056;-58
2021/09/01 06:35:50;;;;;;;18.27;13.45;;;;;;;11.80;100.00;95621.13;5034446;28;20035;-60
2021/09/01 06:38:15;;;;;;;18.80;13.50;;;;;;;11.79;100.00;95629.41;5016153;28;20037;-61
2021/09/01 06:40:41;;;;;;;17.80;13.55;;;;;;;11.80;100.00;95629.19;5051723;28;20554;-58
2021/09/01 06:43:11;;;;;;;18.77;13.63;;;;;;;11.83;100.00;95622.50;5034153;28;20029;-61
2021/09/01 06:45:41;;;;;;;17.15;13.10;;;;;;;11.86;100.00;95627.38;5052231;28;20025;-57
2021/09/01 06:48:06;;;;;;;20.05;12.95;;;;;;;11.96;100.00;95624.75;5051112;28;20387;-58
2021/09/01 06:50:33;;;;;;;17.02;13.13;;;;;;;11.97;100.00;95617.50;5039784;28;20025;-58
2021/09/01 06:52:59;;;;;;;18.10;13.45;;;;;;;12.03;100.00;95616.44;5051891;28;20036;-60
2021/09/01 06:55:25;;;;;;;19.92;13.75;;;;;;;12.18;100.00;95606.59;5051673;28;20029;-60
2021/09/01 06:57:52;;;;;;;18.40;13.18;;;;;;;12.20;100.00;95603.63;5046080;28;20025;-60
2021/09/01 07:00:19;;;;;;;18.52;12.32;;;;;;;12.24;100.00;95604.72;5052039;28;20033;-55
2021/09/01 07:02:45;;;;;;;18.42;12.75;;;;;;;12.36;100.00;95596.44;5054237;23;20400;-58
2021/09/01 07:05:14;;;;;;;16.70;11.57;;;;;;;12.48;100.00;95602.38;5013114;28;20124;-57
2021/09/01 07:07:40;;;;;;;14.80;11.40;;;;;;;12.56;100.00;95601.88;5031300;28;20022;-59
2021/09/01 07:10:09;;;;;;;17.17;11.43;;;;;;;12.68;100.00;95601.66;5031956;28;20775;-58
2021/09/01 07:12:35;;;;;;;15.10;11.25;;;;;;;12.87;100.00;95592.00;5014000;28;20120;-55
2021/09/01 07:15:01;;;;;;;16.77;12.18;;;;;;;13.04;100.00;95597.16;5014053;28;20036;-54
2021/09/01 07:17:29;;;;;;;12.98;10.05;;;;;;;13.13;100.00;95583.97;5031913;28;20104;-53
2021/09/01 07:19:57;;;;;;;15.07;10.63;;;;;;;13.28;100.00;95584.00;5031841;28;20036;-54
2021/09/01 07:22:22;;;;;;;13.43;10.10;;;;;;;13.31;100.00;95576.19;5033762;28;20041;-51
2021/09/01 07:24:50;;;;;;;12.50;10.10;;;;;;;13.34;100.00;95577.53;5035484;28;20040;-54
2021/09/01 07:27:15;;;;;;;14.18;9.38;;;;;;;13.46;100.00;95561.94;5018137;28;20044;-54
2021/09/01 07:29:43;;;;;;;13.10;8.82;;;;;;;13.49;100.00;95563.28;5017537;28;20480;-58
2021/09/01 07:32:08;;;;;;;13.07;9.40;;;;;;;13.53;100.00;95559.75;5035215;28;20025;-60
2021/09/01 07:34:34;;;;;;;11.68;8.70;;;;;;;13.52;100.00;95558.16;5035286;28;20022;-59
2021/09/01 07:37:02;;;;;;;12.77;9.40;;;;;;;13.69;100.00;95549.00;5035321;28;20539;-59
2021/09/01 07:39:29;;;;;;;11.55;9.07;;;;;;;13.80;100.00;95537.13;5035228;28;20368;-57
2021/09/01 07:41:55;;;;;;;11.30;8.63;;;;;;;13.60;100.00;95540.66;5035187;28;20104;-59
2021/09/01 07:44:20;;;;;;;13.35;9.10;;;;;;;13.62;100.00;95515.06;5017752;28;20037;-59
2021/09/01 07:46:48;;;;;;;16.52;8.52;;;;;;;13.86;100.00;95517.97;5035003;28;20017;-59
2021/09/01 07:49:13;;;;;;;11.27;8.70;;;;;;;13.90;100.00;95505.56;5024774;28;20468;-60
2021/09/01 07:51:39;;;;;;;11.73;7.82;;;;;;;13.97;100.00;95491.81;5032173;28;20025;-59
2021/09/01 07:54:07;;;;;;;11.18;8.82;;;;;;;13.78;100.00;95496.19;5034931;28;20036;-57
2021/09/01 07:56:32;;;;;;;11.57;8.32;;;;;;;14.05;100.00;95483.16;5029156;28;20021;-60
2021/09/01 07:58:58;;;;;;;11.20;8.15;;;;;;;14.23;100.00;95457.47;5034915;28;20029;-59
2021/09/01 08:01:23;;;;;;;12.43;7.88;;;;;;;14.59;100.00;95441.91;5034846;28;20036;-57
2021/09/01 08:03:51;;;;;;;12.23;7.32;;;;;;;14.99;100.00;95427.28;5034683;28;20095;-57
2021/09/01 08:06:16;;;;;;;9.85;7.20;;;;;;;15.27;100.00;95405.94;5034678;28;20025;-56
2021/09/01 08:08:42;;;;;;;10.27;7.35;;;;;;;15.69;100.00;95377.41;5034859;28;20017;-58
2021/09/01 08:11:07;;;;;;;12.88;7.97;;;;;;;15.97;100.00;95365.72;5017021;28;20084;-57
2021/09/01 08:13:35;;;;;;;9.68;7.38;;;;;;;16.32;100.00;95363.56;5034679;28;20022;-59
2021/09/01 08:16:00;;;;;;;8.70;6.97;;;;;;;16.76;100.00;95363.16;5016755;28;20029;-59
2021/09/01 08:18:26;;;;;;;9.63;7.35;;;;;;;16.99;100.00;95378.44;5034424;28;20025;-60
2021/09/01 08:20:51;;;;;;;10.10;7.65;;;;;;;17.31;100.00;95396.53;5034405;28;20025;-59
2021/09/01 08:23:19;;;;;;;9.10;7.50;;;;;;;17.34;100.00;95403.25;5034306;28;20116;-59
2021/09/01 08:25:47;;;;;;;9.00;7.30;;;;;;;17.63;100.00;95417.31;5034346;28;20053;-58
2021/09/01 08:28:12;;;;;;;10.02;7.40;;;;;;;17.82;100.00;95444.34;5034395;28;20108;-61
2021/09/01 08:30:41;;;;;;;10.27;7.55;;;;;;;17.91;100.00;95455.28;5034293;28;20163;-60
2021/09/01 08:33:06;;;;;;;9.55;7.38;;;;;;;17.69;100.00;95480.31;5016238;28;20044;-59
2021/09/01 08:35:32;;;;;;;9.55;6.88;;;;;;;17.76;100.00;95493.50;5034058;28;20025;-58
2021/09/01 08:37:57;;;;;;;9.50;7.38;;;;;;;17.67;100.00;95512.31;5033958;28;20036;-59
2021/09/01 08:40:23;;;;;;;9.73;6.72;;;;;;;17.64;100.00;95516.44;5034070;28;20028;-60
2021/09/01 08:42:49;;;;;;;10.35;6.53;;;;;;;17.77;100.00;95530.31;5034009;28;20112;-60
2021/09/01 08:45:15;;;;;;;8.35;6.60;;;;;;;17.93;100.00;95548.72;5034009;28;20036;-61
2021/09/01 08:47:41;;;;;;;8.90;7.07;;;;;;;17.99;100.00;95556.75;5033940;28;20021;-61
2021/09/01 08:50:10;;;;;;;9.80;6.57;;;;;;;17.89;100.00;95572.09;5003032;28;20022;-60
2021/09/01 08:52:37;;;;;;;8.02;6.28;;;;;;;18.03;100.00;95572.13;5033908;28;20029;-56
2021/09/01 08:55:13;;;;;;;9.35;6.32;;;;;;;18.13;100.00;95580.06;5016047;28;20126;-53
2021/09/01 08:57:39;;;;;;;7.30;5.90;;;;;;;18.24;100.00;95596.94;5009902;28;20379;-55
2021/09/01 09:00:07;;;;;;;7.55;6.57;;;;;;;18.27;100.00;95612.59;5033639;28;20028;-59
2021/09/01 09:02:33;;;;;;;8.27;6.65;;;;;;;18.12;100.00;95621.00;5033492;28;20048;-55
2021/09/01 09:05:07;;;;;;;7.82;6.38;;;;;;;18.18;100.00;95627.94;5033669;28;20021;-59
2021/09/01 09:07:51;;;;;;;11.40;6.95;;;;;;;18.13;100.00;95639.72;5033442;28;20401;-60
2021/09/01 09:10:30;;;;;;;9.32;6.75;;;;;;;18.21;100.00;95628.16;5015855;28;20025;-55
2021/09/01 09:12:59;;;;;;;8.38;6.50;;;;;;;18.23;100.00;95650.38;5033395;28;20029;-57
2021/09/01 09:15:27;;;;;;;8.82;6.18;;;;;;;18.09;100.00;95643.28;5015719;28;20506;-56
2021/09/01 09:17:52;;;;;;;7.70;6.28;;;;;;;17.96;100.00;95642.97;5033323;28;20117;-60
2021/09/01 09:20:29;;;;;;;8.50;6.68;;;;;;;18.17;100.00;95659.69;5015719;28;20383;-58
2021/09/01 09:22:55;;;;;;;9.82;7.15;;;;;;;18.35;100.00;95660.72;5033389;28;20384;-59
2021/09/01 09:25:28;;;;;;;8.73;6.50;;;;;;;18.85;100.00;95651.91;5033287;28;20079;-59
2021/09/01 09:28:05;;;;;;;7.55;6.20;;;;;;;18.66;100.00;95677.22;5033047;28;20384;-60
2021/09/01 09:30:44;;;;;;;8.20;6.55;;;;;;;18.64;100.00;95668.59;5033159;28;20029;-55
2021/09/01 09:33:12;;;;;;;9.93;6.63;;;;;;;18.52;100.00;95685.34;5033103;28;20029;-60
2021/09/01 09:36:09;;;;;;;11.43;6.65;;;;;;;18.88;100.00;95665.66;5015208;28;20021;-60
2021/09/01 09:38:41;;;;;;;7.78;6.00;;;;;;;19.07;100.00;95679.13;5012649;28;20077;-54
2021/09/01 09:41:30;;;;;;;8.65;6.50;;;;;;;19.45;100.00;95711.47;5033287;28;20140;-57
2021/09/01 09:44:03;;;;;;;8.90;6.50;;;;;;;19.48;100.00;95725.22;5032258;28;20025;-60
2021/09/01 09:46:29;;;;;;;7.15;6.43;;;;;;;19.62;100.00;95744.22;5032904;28;20025;-57
2021/09/01 09:49:06;;;;;;;8.00;5.55;;;;;;;19.96;100.00;95758.13;5025215;28;20064;-59
2021/09/01 09:51:41;;;;;;;9.30;5.53;;;;;;;19.75;100.00;95772.47;5028700;28;20029;-57
2021/09/01 09:54:17;;;;;;;7.85;5.30;;;;;;;19.47;100.00;95769.81;5032590;28;20075;-60
2021/09/01 09:56:44;;;;;;;8.18;5.22;;;;;;;19.87;100.00;95764.63;5026740;28;20041;-52
2021/09/01 09:59:17;;;;;;;4.95;4.45;;;;;;;19.89;100.00;95808.63;5008026;28;20505;-60
2021/09/01 10:01:44;;;;;;;5.63;4.88;;;;;;;20.16;100.00;95797.63;5006027;28;20034;-59
2021/09/01 10:04:10;;;;;;;6.82;5.07;;;;;;;20.01;100.00;95832.53;5005726;28;20552;-61
2021/09/01 10:06:35;;;;;;;5.75;4.40;;;;;;;20.07;100.00;95825.88;4995172;28;20034;-61
2021/09/01 10:09:03;;;;;;;6.65;4.95;;;;;;;19.96;100.00;95822.56;5002334;28;20023;-61
2021/09/01 10:11:29;;;;;;;6.57;4.80;;;;;;;19.96;100.00;95801.63;5011485;28;20388;-61
2021/09/01 10:13:55;;;;;;;6.22;4.43;;;;;;;20.05;100.00;95834.34;5016218;28;20021;-60
2021/09/01 10:16:20;;;;;;;5.60;3.85;;;;;;;19.90;100.00;95851.00;5008624;28;20032;-59
2021/09/01 10:19:13;;;;;;;4.95;3.92;;;;;;;20.26;100.00;95832.75;4991562;28;20040;-60
2021/09/01 10:21:41;;;;;;;4.38;3.38;;;;;;;20.31;100.00;95871.84;5014628;28;20054;-60
2021/09/01 10:24:35;;;;;;;4.95;3.80;;;;;;;20.53;100.00;95888.22;5016853;28;20032;-59
2021/09/01 10:27:14;;;;;;;4.63;3.80;;;;;;;20.69;100.00;95915.88;5021369;28;20022;-61
2021/09/01 10:29:49;;;;;;;5.03;4.07;;;;;;;20.72;100.00;95882.59;5008869;28;20030;-61
2021/09/01 10:32:23;;;;;;;4.55;3.40;;;;;;;20.71;100.00;95928.06;5015968;28;20028;-60
2021/09/01 10:34:59;;;;;;;4.45;3.38;;;;;;;20.82;100.00;95906.84;4996578;28;20033;-59
2021/09/01 10:37:58;;;;;;;3.90;3.50;;;;;;;20.88;100.00;95919.22;5023407;28;20053;-61
2021/09/01 10:40:30;;;;;;;6.40;4.13;;;;;;;21.05;100.00;95919.31;4986033;28;20056;-61
2021/09/01 10:42:57;;;;;;;4.22;3.58;;;;;;;21.31;100.00;95957.69;5014493;28;20025;-61
2021/09/01 10:45:32;;;;;;;4.10;3.70;;;;;;;21.36;100.00;95945.84;5005383;28;20040;-62
2021/09/01 10:48:04;;;;;;;5.63;3.60;;;;;;;21.49;100.00;95961.31;5031544;28;20428;-61
2021/09/01 10:50:40;;;;;;;4.07;3.47;;;;;;;21.58;100.00;95983.16;5019481;28;20024;-61
2021/09/01 10:53:25;;;;;;;4.07;3.25;;;;;;;21.42;100.00;95985.47;4973083;28;20045;-61
2021/09/01 10:55:52;;;;;;;3.97;3.35;;;;;;;21.46;100.00;95989.19;5020924;28;20030;-60
2021/09/01 10:58:17;;;;;;;4.88;3.83;;;;;;;21.72;100.00;96002.97;5034378;28;20383;-61
2021/09/01 11:00:44;;;;;;;5.57;3.97;;;;;;;21.49;100.00;96017.72;5033201;28;20026;-58
2021/09/01 11:03:10;;;;;;;5.07;3.53;;;;;;;21.63;100.00;96037.56;5011536;28;20554;-59
2021/09/01 11:05:35;;;;;;;4.95;3.53;;;;;;;21.73;100.00;96067.28;5008036;28;20029;-62
2021/09/01 11:08:05;;;;;;;4.03;3.28;;;;;;;21.24;100.00;96070.91;5006007;28;20503;-59
2021/09/01 11:10:36;;;;;;;7.53;3.90;;;;;;;21.59;100.00;96047.47;4995787;28;20489;-59
2021/09/01 11:13:03;;;;;;;4.85;3.58;;;;;;;21.64;100.00;96047.34;4998696;28;20034;-60
2021/09/01 11:15:51;;;;;;;3.97;3.47;;;;;;;21.62;100.00;96058.56;5018169;28;20021;-61
2021/09/01 11:18:22;;;;;;;4.35;3.25;;;;;;;21.90;100.00;96034.63;5025046;28;20038;-61
2021/09/01 11:20:54;;;;;;;4.70;3.30;;;;;;;21.99;100.00;96029.22;5024145;28;20109;-58
2021/09/01 11:23:27;;;;;;;4.73;3.57;;;;;;;21.89;100.00;96078.59;5031603;28;20025;-60
2021/09/01 11:25:55;;;;;;;3.97;3.38;;;;;;;21.76;100.00;96091.19;5026737;28;20503;-62
2021/09/01 11:28:21;;;;;;;5.70;3.53;;;;;;;21.92;100.00;96097.06;5034890;28;20040;-58